createdAt,value
2022-08-20T00:00:25.504Z,25.38
2022-08-20T00:03:02.496Z,25.33
2022-08-20T00:05:39.040Z,25.40
2022-08-20T00:08:06.370Z,25.30
2022-08-20T00:10:35.716Z,25.31
2022-08-20T00:13:03.061Z,25.38
2022-08-20T00:15:33.475Z,25.44
2022-08-20T00:18:00.099Z,25.16
2022-08-20T00:20:30.588Z,25.40
2022-08-20T00:22:58.370Z,25.35
2022-08-20T00:25:26.660Z,25.43
2022-08-20T00:27:53.359Z,25.45
2022-08-20T00:30:20.752Z,25.00
2022-08-20T00:32:52.406Z,24.93
2022-08-20T00:35:22.495Z,24.95
2022-08-20T00:37:49.056Z,24.97
2022-08-20T00:40:22.360Z,24.98
2022-08-20T00:43:00.225Z,25.09
2022-08-20T00:45:30.352Z,24.94
2022-08-20T00:47:58.018Z,24.79
2022-08-20T00:50:33.056Z,24.76
2022-08-20T00:53:02.757Z,24.48
2022-08-20T00:55:31.789Z,24.55
2022-08-20T00:58:04.192Z,24.65
2022-08-20T01:00:35.056Z,24.73
2022-08-20T01:03:01.789Z,24.88
2022-08-20T01:05:30.074Z,24.94
2022-08-20T01:07:59.228Z,24.93
2022-08-20T01:10:34.901Z,24.99
2022-08-20T01:13:08.452Z,24.98
2022-08-20T01:15:42.991Z,25.00
2022-08-20T01:18:13.807Z,24.99
2022-08-20T01:20:54.115Z,25.01
2022-08-20T01:23:32.691Z,24.92
2022-08-20T01:26:08.701Z,24.93
2022-08-20T01:28:38.265Z,24.95
2022-08-20T01:31:07.938Z,24.87
2022-08-20T01:33:34.634Z,24.55
2022-08-20T01:36:01.514Z,24.67
2022-08-20T01:38:30.235Z,24.57
2022-08-20T01:41:19.046Z,24.46
2022-08-20T01:43:57.078Z,24.19
2022-08-20T01:48:55.440Z,23.93
2022-08-20T01:51:27.125Z,23.82
2022-08-20T01:53:56.460Z,23.83
2022-08-20T01:56:28.457Z,23.34
2022-08-20T01:58:59.311Z,23.57
2022-08-20T02:01:28.068Z,23.67
2022-08-20T02:03:56.357Z,23.55
2022-08-20T02:06:25.662Z,23.60
2022-08-20T02:08:55.551Z,23.86
2022-08-20T02:11:23.102Z,24.03
2022-08-20T02:13:52.398Z,24.19
2022-08-20T02:16:21.908Z,24.19
2022-08-20T02:18:54.349Z,24.23
2022-08-20T02:21:23.613Z,24.23
2022-08-20T02:23:50.208Z,24.35
2022-08-20T02:26:19.206Z,24.40
2022-08-20T02:28:48.835Z,24.44
2022-08-20T02:31:16.773Z,24.23
2022-08-20T02:33:44.244Z,24.16
2022-08-20T02:36:31.448Z,24.15
2022-08-20T02:38:58.126Z,24.07
2022-08-20T02:41:24.897Z,24.10
2022-08-20T02:43:51.588Z,23.93
2022-08-20T02:46:19.459Z,23.78
2022-08-20T02:48:46.494Z,23.66
2022-08-20T02:51:13.040Z,23.55
2022-08-20T02:53:42.214Z,23.85
2022-08-20T02:56:11.069Z,23.28
2022-08-20T02:58:39.177Z,23.16
2022-08-20T03:01:08.982Z,23.20
2022-08-20T03:03:35.593Z,23.34
2022-08-20T03:06:02.942Z,22.91
2022-08-20T03:08:29.567Z,23.11
2022-08-20T03:10:56.722Z,23.28
2022-08-20T03:13:24.254Z,23.23
2022-08-20T03:15:58.634Z,22.98
2022-08-20T03:18:30.273Z,22.72
2022-08-20T03:20:57.196Z,22.65
2022-08-20T03:23:23.928Z,22.68
2022-08-20T03:25:50.604Z,23.31
2022-08-20T03:28:18.818Z,23.55
2022-08-20T03:30:46.084Z,23.62
2022-08-20T03:33:12.713Z,23.51
2022-08-20T03:35:39.804Z,23.34
2022-08-20T03:38:09.688Z,23.45
2022-08-20T03:40:37.220Z,23.55
2022-08-20T03:43:06.656Z,23.55
2022-08-20T03:45:33.223Z,23.50
2022-08-20T03:47:59.981Z,23.48
2022-08-20T03:50:29.677Z,23.61
2022-08-20T03:52:57.683Z,23.57
2022-08-20T03:55:25.008Z,23.49
2022-08-20T03:57:54.785Z,23.55
2022-08-20T04:00:38.579Z,23.49
2022-08-20T04:03:08.361Z,23.47
2022-08-20T04:05:40.677Z,23.49
2022-08-20T04:08:18.271Z,23.65
2022-08-20T04:10:46.795Z,23.64
2022-08-20T04:13:15.139Z,23.84
2022-08-20T04:15:45.251Z,23.81
2022-08-20T04:18:13.664Z,23.84
2022-08-20T04:20:42.854Z,23.92
2022-08-20T04:23:09.879Z,24.04
2022-08-20T04:25:43.169Z,24.08
2022-08-20T04:28:27.372Z,23.94
2022-08-20T04:30:59.233Z,24.00
2022-08-20T04:33:33.868Z,24.03
2022-08-20T04:36:05.557Z,24.16
2022-08-20T04:38:48.069Z,24.17
2022-08-20T04:41:22.424Z,23.58
2022-08-20T04:43:50.281Z,23.69
2022-08-20T04:46:17.127Z,23.77
2022-08-20T04:48:50.191Z,23.84
2022-08-20T04:51:23.338Z,23.98
2022-08-20T04:53:53.812Z,24.06
2022-08-20T04:56:26.531Z,23.40
2022-08-20T04:58:59.236Z,23.49
2022-08-20T05:01:27.072Z,23.89
2022-08-20T05:03:55.030Z,23.97
2022-08-20T05:06:25.060Z,23.87
2022-08-20T05:08:53.411Z,22.87
2022-08-20T05:11:33.433Z,22.82
2022-08-20T05:14:02.287Z,23.50
2022-08-20T05:16:28.920Z,23.78
2022-08-20T05:18:55.434Z,23.62
2022-08-20T05:21:22.081Z,23.68
2022-08-20T05:23:49.400Z,23.70
2022-08-20T05:26:16.743Z,23.63
2022-08-20T05:28:51.237Z,23.70
2022-08-20T05:31:31.948Z,23.84
2022-08-20T05:34:10.325Z,23.97
2022-08-20T05:36:44.007Z,24.05
2022-08-20T05:39:11.276Z,23.72
2022-08-20T05:41:39.667Z,23.87
2022-08-20T05:44:13.413Z,23.51
2022-08-20T05:46:42.767Z,23.37
2022-08-20T05:49:13.183Z,23.22
2022-08-20T05:51:39.926Z,23.10
2022-08-20T05:54:07.486Z,23.07
2022-08-20T05:56:34.233Z,22.90
2022-08-20T05:59:04.865Z,22.99
2022-08-20T06:01:33.335Z,22.85
2022-08-20T06:04:19.462Z,22.89
2022-08-20T06:06:47.420Z,23.02
2022-08-20T06:09:28.597Z,22.97
2022-08-20T06:12:01.323Z,22.96
2022-08-20T06:14:28.139Z,22.85
2022-08-20T06:16:57.748Z,22.87
2022-08-20T06:19:26.351Z,22.90
2022-08-20T06:21:53.751Z,22.95
2022-08-20T06:24:21.313Z,22.98
2022-08-20T06:26:48.233Z,23.03
2022-08-20T06:29:15.786Z,22.98
2022-08-20T06:31:42.333Z,23.00
2022-08-20T06:34:08.885Z,22.95
2022-08-20T06:36:35.439Z,22.93
2022-08-20T06:39:02.021Z,22.89
2022-08-20T06:41:36.036Z,22.89
2022-08-20T06:44:03.401Z,22.95
2022-08-20T06:46:29.980Z,22.97
2022-08-20T06:48:56.871Z,22.89
2022-08-20T06:51:23.446Z,22.83
2022-08-20T06:53:49.978Z,22.94
2022-08-20T06:56:16.649Z,22.97
2022-08-20T06:58:43.958Z,22.94
2022-08-20T07:01:12.059Z,23.00
2022-08-20T07:03:54.219Z,23.00
2022-08-20T07:06:21.908Z,22.93
2022-08-20T07:08:48.428Z,23.08
2022-08-20T07:11:15.978Z,23.11
2022-08-20T07:13:42.534Z,23.04
2022-08-20T07:16:09.124Z,22.99
2022-08-20T07:18:36.148Z,22.93
2022-08-20T07:21:02.789Z,22.94
2022-08-20T07:23:31.465Z,22.98
2022-08-20T07:25:58.428Z,23.18
2022-08-20T07:28:28.944Z,23.26
2022-08-20T07:31:15.777Z,23.30
2022-08-20T07:33:44.327Z,23.48
2022-08-20T07:36:12.287Z,23.44
2022-08-20T07:38:39.084Z,23.50
2022-08-20T07:41:13.420Z,23.59
2022-08-20T07:43:41.178Z,23.70
2022-08-20T07:46:09.293Z,23.70
2022-08-20T07:48:42.067Z,23.76
2022-08-20T07:51:10.963Z,23.77
2022-08-20T07:53:39.063Z,23.75
2022-08-20T07:56:11.413Z,23.76
2022-08-20T08:01:07.600Z,23.84
2022-08-20T08:03:39.341Z,23.92
2022-08-20T08:06:28.646Z,23.80
2022-08-20T08:09:11.751Z,24.07
2022-08-20T08:11:45.003Z,24.07
2022-08-20T08:14:13.952Z,24.18
2022-08-20T08:16:40.543Z,24.18
2022-08-20T08:19:12.093Z,24.11
2022-08-20T08:21:39.086Z,24.07
2022-08-20T08:24:05.719Z,24.19
2022-08-20T08:26:32.258Z,24.17
2022-08-20T08:28:58.928Z,24.29
2022-08-20T08:31:25.961Z,24.33
2022-08-20T08:33:53.115Z,24.52
2022-08-20T08:36:19.709Z,24.58
2022-08-20T08:38:46.464Z,24.22
2022-08-20T08:41:29.862Z,24.48
2022-08-20T08:44:05.723Z,24.79
2022-08-20T08:46:38.285Z,24.81
2022-08-20T08:49:05.411Z,24.56
2022-08-20T08:51:56.167Z,24.59
2022-08-20T08:54:27.488Z,24.85
2022-08-20T08:56:54.707Z,24.98
2022-08-20T08:59:23.307Z,24.99
2022-08-20T09:01:57.232Z,24.96
2022-08-20T09:04:31.585Z,25.15
2022-08-20T09:06:59.011Z,25.36
2022-08-20T09:09:37.842Z,25.38
2022-08-20T09:12:13.835Z,25.14
2022-08-20T09:14:41.214Z,25.16
2022-08-20T09:17:08.214Z,25.46
2022-08-20T09:19:34.766Z,25.68
2022-08-20T09:22:08.791Z,25.78
2022-08-20T09:24:35.387Z,25.64
2022-08-20T09:27:02.007Z,25.65
2022-08-20T09:29:29.463Z,25.40
2022-08-20T09:32:16.414Z,25.57
2022-08-20T09:34:45.900Z,25.50
2022-08-20T09:37:14.841Z,25.65
2022-08-20T09:39:42.005Z,25.69
2022-08-20T09:42:14.494Z,25.84
2022-08-20T09:44:41.213Z,25.86
2022-08-20T09:47:10.972Z,25.99
2022-08-20T09:49:38.450Z,25.94
2022-08-20T09:52:08.578Z,25.89
2022-08-20T09:54:36.722Z,25.76
2022-08-20T09:57:06.404Z,25.64
2022-08-20T09:59:34.981Z,25.71
2022-08-20T10:02:01.578Z,25.69
2022-08-20T10:04:28.664Z,25.77
2022-08-20T10:06:55.405Z,25.74
2022-08-20T10:09:22.553Z,25.65
2022-08-20T10:11:49.125Z,25.47
2022-08-20T10:14:15.717Z,25.56
2022-08-20T10:16:42.302Z,25.68
2022-08-20T10:19:08.934Z,25.71
2022-08-20T10:21:38.599Z,25.84
2022-08-20T10:24:05.584Z,25.98
2022-08-20T10:26:32.189Z,25.89
2022-08-20T10:28:58.731Z,25.92
2022-08-20T10:31:25.262Z,25.98
2022-08-20T10:33:51.807Z,26.08
2022-08-20T10:36:18.377Z,26.20
2022-08-20T10:38:45.436Z,25.98
2022-08-20T10:41:12.167Z,25.92
2022-08-20T10:43:38.766Z,25.87
2022-08-20T10:46:05.962Z,25.84
2022-08-20T10:48:32.667Z,25.87
2022-08-20T10:50:59.269Z,25.81
2022-08-20T10:53:25.883Z,25.83
2022-08-20T10:55:54.255Z,25.91
2022-08-20T10:58:24.025Z,25.97
2022-08-20T11:00:51.640Z,26.07
2022-08-20T11:03:18.743Z,26.01
2022-08-20T11:05:46.122Z,26.03
2022-08-20T11:08:12.828Z,25.88
2022-08-20T11:10:40.459Z,26.04
2022-08-20T11:13:08.638Z,26.00
2022-08-20T11:15:42.150Z,26.04
2022-08-20T11:18:09.183Z,25.93
2022-08-20T11:20:36.962Z,25.91
2022-08-20T11:23:04.010Z,26.01
2022-08-20T11:25:31.215Z,26.08
2022-08-20T11:27:58.940Z,26.01
2022-08-20T11:30:33.492Z,26.11
2022-08-20T11:33:01.004Z,26.11
2022-08-20T11:35:49.103Z,26.21
2022-08-20T11:38:16.403Z,26.13
2022-08-20T11:40:42.957Z,26.02
2022-08-20T11:43:17.729Z,26.24
2022-08-20T11:45:47.649Z,26.42
2022-08-20T11:48:14.378Z,26.56
2022-08-20T11:50:41.007Z,26.68
2022-08-20T11:53:08.219Z,26.73
2022-08-20T11:55:35.691Z,26.83
2022-08-20T11:58:02.280Z,26.84
2022-08-20T12:00:32.977Z,26.92
2022-08-20T12:03:05.385Z,27.13
2022-08-20T12:05:33.090Z,27.17
2022-08-20T12:08:03.232Z,27.18
2022-08-20T12:10:30.603Z,27.24
2022-08-20T12:12:57.916Z,27.30
2022-08-20T12:15:26.848Z,27.13
2022-08-20T12:17:54.420Z,27.12
2022-08-20T12:20:21.681Z,27.04
2022-08-20T12:22:48.213Z,27.33
2022-08-20T12:25:15.329Z,27.37
2022-08-20T12:27:41.977Z,27.68
2022-08-20T12:30:13.156Z,27.99
2022-08-20T12:32:39.876Z,27.84
2022-08-20T12:35:08.216Z,27.76
2022-08-20T12:37:35.190Z,27.70
2022-08-20T12:40:06.685Z,27.88
2022-08-20T12:42:33.749Z,27.97
2022-08-20T12:45:00.780Z,28.17
2022-08-20T12:47:30.652Z,28.21
2022-08-20T12:50:05.110Z,28.18
2022-08-20T12:52:32.263Z,28.38
2022-08-20T12:55:00.059Z,27.92
2022-08-20T12:57:28.787Z,27.65
2022-08-20T13:00:07.952Z,27.94
2022-08-20T13:02:34.545Z,28.17
2022-08-20T13:05:04.905Z,28.48
2022-08-20T13:07:32.552Z,28.59
2022-08-20T13:09:59.783Z,28.75
2022-08-20T13:12:26.528Z,28.82
2022-08-20T13:14:53.110Z,28.97
2022-08-20T13:17:19.987Z,28.39
2022-08-20T13:19:58.557Z,28.50
2022-08-20T13:22:25.417Z,28.31
2022-08-20T13:24:53.425Z,28.05
2022-08-20T13:27:20.477Z,28.14
2022-08-20T13:29:58.201Z,28.15
2022-08-20T13:32:25.375Z,28.44
2022-08-20T13:34:51.987Z,28.64
2022-08-20T13:37:25.517Z,28.53
2022-08-20T13:39:53.830Z,28.83
2022-08-20T13:42:20.479Z,28.92
2022-08-20T13:44:48.366Z,28.58
2022-08-20T13:47:22.093Z,28.54
2022-08-20T13:49:55.840Z,28.69
2022-08-20T13:52:22.443Z,28.51
2022-08-20T13:54:50.674Z,28.43
2022-08-20T13:57:19.096Z,28.63
2022-08-20T13:59:49.437Z,28.43
2022-08-20T14:02:17.525Z,28.36
2022-08-20T14:04:44.991Z,28.14
2022-08-20T14:07:20.862Z,28.02
2022-08-20T14:09:51.094Z,28.10
2022-08-20T14:12:17.918Z,28.01
2022-08-20T14:14:44.768Z,27.89
2022-08-20T14:17:26.868Z,27.98
2022-08-20T14:20:00.910Z,27.93
2022-08-20T14:22:29.011Z,27.88
2022-08-20T14:24:56.496Z,27.93
2022-08-20T14:27:27.819Z,27.86
2022-08-20T14:29:57.767Z,27.92
2022-08-20T14:32:24.469Z,27.87
2022-08-20T14:34:51.054Z,27.69
2022-08-20T14:37:17.571Z,27.73
2022-08-20T14:39:46.090Z,27.79
2022-08-20T14:42:12.973Z,27.68
2022-08-20T14:44:40.198Z,27.54
2022-08-20T14:47:10.655Z,27.53
2022-08-20T14:49:37.188Z,27.62
2022-08-20T14:52:04.426Z,27.44
2022-08-20T14:54:30.988Z,27.28
2022-08-20T14:57:01.896Z,27.17
2022-08-20T14:59:29.016Z,26.54
2022-08-20T15:01:55.644Z,26.18
2022-08-20T15:04:23.945Z,26.16
2022-08-20T15:06:54.718Z,26.13
2022-08-20T15:09:21.441Z,26.01
2022-08-20T15:11:48.060Z,26.05
2022-08-20T15:14:15.074Z,25.53
2022-08-20T15:16:45.255Z,25.51
2022-08-20T15:19:11.870Z,-140.71
2022-08-20T15:21:45.321Z,24.88
2022-08-20T15:24:19.111Z,24.88
2022-08-20T15:26:46.814Z,23.36
2022-08-20T15:29:22.641Z,24.25
2022-08-20T15:31:49.768Z,-140.71
2022-08-20T15:34:17.844Z,-140.71
2022-08-20T15:36:45.368Z,-140.71
2022-08-20T15:39:12.003Z,-140.71
2022-08-20T15:41:38.628Z,-140.71
2022-08-20T15:44:05.168Z,-140.71
2022-08-20T15:46:36.367Z,-140.71
2022-08-20T15:49:11.445Z,-140.71
2022-08-20T15:51:46.720Z,-140.71
2022-08-20T15:54:27.686Z,-140.71
2022-08-20T15:57:11.786Z,-140.71
2022-08-20T16:00:02.190Z,-140.71
2022-08-20T16:02:52.320Z,-140.71
2022-08-20T16:05:36.396Z,-140.71
2022-08-20T16:08:31.057Z,22.68
2022-08-20T16:11:18.260Z,22.65
2022-08-20T16:13:49.453Z,22.73
2022-08-20T16:16:27.148Z,22.67
2022-08-20T16:18:55.148Z,22.74
2022-08-20T16:21:31.629Z,22.61
2022-08-20T16:23:58.590Z,22.75
2022-08-20T16:26:30.938Z,22.81
2022-08-20T16:29:29.860Z,22.62
2022-08-20T16:32:03.368Z,22.66
2022-08-20T16:34:45.022Z,22.66
2022-08-20T16:37:33.277Z,22.57
2022-08-20T16:40:21.871Z,22.83
2022-08-20T16:42:51.383Z,22.89
2022-08-20T16:45:24.164Z,22.72
2022-08-20T16:47:55.008Z,22.66
2022-08-20T16:50:31.608Z,22.62
2022-08-20T16:52:58.343Z,22.62
2022-08-20T16:55:25.924Z,22.47
2022-08-20T16:57:53.791Z,22.50
2022-08-20T17:00:35.769Z,22.54
2022-08-20T17:03:39.505Z,22.71
2022-08-20T17:06:26.957Z,22.84
2022-08-20T17:08:53.819Z,22.82
2022-08-20T17:11:32.655Z,22.73
2022-08-20T17:14:07.310Z,22.50
2022-08-20T17:16:41.071Z,22.61
2022-08-20T17:19:12.051Z,22.49
2022-08-20T17:21:39.746Z,22.25
2022-08-20T17:24:18.449Z,22.46
2022-08-20T17:26:56.131Z,22.44
2022-08-20T17:29:26.608Z,22.28
2022-08-20T17:32:18.416Z,22.18
2022-08-20T17:34:48.840Z,22.23
2022-08-20T17:37:23.455Z,22.18
2022-08-20T17:39:53.933Z,22.26
2022-08-20T17:42:26.175Z,22.21
2022-08-20T17:45:05.558Z,22.36
2022-08-20T17:47:36.854Z,22.23
2022-08-20T17:50:15.254Z,22.28
2022-08-20T17:52:49.046Z,22.29
2022-08-20T17:55:15.855Z,22.21
2022-08-20T17:57:45.259Z,21.99
2022-08-20T18:00:16.842Z,22.14
2022-08-20T18:02:44.394Z,21.94
2022-08-20T18:05:21.678Z,21.91
2022-08-20T18:08:04.959Z,21.71
2022-08-20T18:10:37.851Z,21.95
2022-08-20T18:13:29.829Z,21.84
2022-08-20T18:15:58.148Z,21.69
2022-08-20T18:19:12.068Z,21.66
2022-08-20T18:22:10.626Z,21.50
2022-08-20T18:25:00.579Z,21.49
2022-08-20T18:27:33.322Z,21.41
2022-08-20T18:30:00.615Z,21.35
2022-08-20T18:32:35.072Z,21.34
2022-08-20T18:35:24.024Z,21.28
2022-08-20T18:37:50.687Z,21.44
2022-08-20T18:40:27.961Z,21.60
2022-08-20T18:42:54.864Z,21.43
2022-08-20T18:45:34.838Z,21.62
2022-08-20T18:48:03.496Z,21.47
2022-08-20T18:50:38.812Z,21.43
2022-08-20T18:53:19.650Z,21.43
2022-08-20T18:55:59.107Z,21.35
2022-08-20T18:58:39.057Z,21.46
2022-08-20T19:01:12.582Z,21.44
2022-08-20T19:03:45.842Z,21.46
2022-08-20T19:06:39.230Z,21.63
2022-08-20T19:09:24.772Z,21.55
2022-08-20T19:12:00.019Z,21.68
2022-08-20T19:14:57.587Z,21.66
2022-08-20T19:17:45.223Z,21.74
2022-08-20T19:20:17.591Z,21.75
2022-08-20T19:22:45.612Z,21.71
2022-08-20T19:25:45.826Z,21.87
2022-08-20T19:28:24.685Z,21.96
2022-08-20T19:30:52.334Z,21.92
2022-08-20T19:33:31.514Z,22.04
2022-08-20T19:36:21.065Z,22.03
2022-08-20T19:38:52.223Z,21.94
2022-08-20T19:41:31.086Z,21.97
2022-08-20T19:43:59.264Z,22.00
2022-08-20T19:46:39.828Z,21.87
2022-08-20T19:49:24.413Z,21.92
2022-08-20T19:52:00.346Z,22.05
2022-08-20T19:54:28.296Z,22.08
2022-08-20T19:57:03.632Z,22.09
2022-08-20T19:59:30.239Z,22.21
2022-08-20T20:02:04.329Z,22.15
2022-08-20T20:04:55.311Z,22.09
2022-08-20T20:07:28.839Z,22.08
2022-08-20T20:09:58.680Z,21.91
2022-08-20T20:12:25.726Z,21.99
2022-08-20T20:14:53.906Z,22.00
2022-08-20T20:17:27.332Z,21.98
2022-08-20T20:20:00.373Z,21.69
2022-08-20T20:22:33.541Z,21.88
2022-08-20T20:25:24.731Z,21.78
2022-08-20T20:27:54.555Z,21.74
2022-08-20T20:30:32.802Z,21.86
2022-08-20T20:33:13.984Z,21.76
2022-08-20T20:35:41.398Z,21.73
2022-08-20T20:38:11.421Z,21.72
2022-08-20T20:40:52.151Z,21.54
2022-08-20T20:43:30.616Z,21.50
2022-08-20T20:46:02.982Z,21.57
2022-08-20T20:48:39.647Z,21.61
2022-08-20T20:51:33.775Z,21.56
2022-08-20T20:54:04.073Z,21.54
2022-08-20T20:56:37.934Z,21.49
2022-08-20T20:59:07.204Z,21.43
2022-08-20T21:01:48.984Z,21.37
2022-08-20T21:04:22.108Z,21.48
2022-08-20T21:06:49.840Z,21.63
2022-08-20T21:09:17.132Z,21.46
2022-08-20T21:11:43.756Z,21.57
2022-08-20T21:14:10.479Z,21.71
2022-08-20T21:16:37.097Z,21.39
2022-08-20T21:19:07.746Z,21.34
2022-08-20T21:21:36.261Z,21.32
2022-08-20T21:24:03.801Z,21.28
2022-08-20T21:26:30.487Z,21.31
2022-08-20T21:28:57.113Z,21.36
2022-08-20T21:31:32.702Z,21.27
2022-08-20T21:34:00.459Z,21.14
2022-08-20T21:36:27.097Z,21.19
2022-08-20T21:38:53.754Z,21.19
2022-08-20T21:41:29.642Z,21.12
2022-08-20T21:43:58.672Z,21.21
2022-08-20T21:46:25.989Z,21.13
2022-08-20T21:48:52.516Z,21.09
2022-08-20T21:51:19.185Z,21.00
2022-08-20T21:53:45.898Z,21.25
2022-08-20T21:56:12.566Z,21.24
2022-08-20T21:58:39.704Z,21.19
2022-08-20T22:01:06.940Z,21.18
2022-08-20T22:03:38.784Z,21.22
2022-08-20T22:06:11.679Z,21.29
2022-08-20T22:08:38.724Z,21.12
2022-08-20T22:11:08.487Z,21.20
2022-08-20T22:13:35.672Z,21.15
2022-08-20T22:16:05.667Z,21.20
2022-08-20T22:18:32.509Z,21.07
2022-08-20T22:20:59.907Z,21.27
2022-08-20T22:23:26.712Z,21.14
2022-08-20T22:25:53.748Z,21.12
2022-08-20T22:28:20.755Z,21.26
2022-08-20T22:30:47.569Z,21.16
2022-08-20T22:33:18.677Z,21.06
2022-08-20T22:35:49.035Z,21.10
2022-08-20T22:38:16.231Z,21.16
2022-08-20T22:40:43.818Z,21.11
2022-08-20T22:43:11.326Z,21.06
2022-08-20T22:45:39.258Z,21.09
2022-08-20T22:48:07.104Z,21.10
2022-08-20T22:50:33.907Z,20.84
2022-08-20T22:53:01.596Z,20.89
2022-08-20T22:55:28.223Z,21.06
2022-08-20T22:57:55.114Z,21.16
2022-08-20T23:00:24.240Z,20.92
2022-08-20T23:02:54.831Z,20.90
2022-08-20T23:05:24.444Z,20.90
2022-08-20T23:07:54.351Z,20.95
2022-08-20T23:10:21.745Z,21.05
2022-08-20T23:12:48.408Z,21.06
2022-08-20T23:15:15.268Z,20.86
2022-08-20T23:17:42.703Z,20.87
2022-08-20T23:20:12.061Z,20.92
2022-08-20T23:22:38.668Z,20.94
2022-08-20T23:25:07.174Z,20.96
2022-08-20T23:27:41.450Z,21.00
2022-08-20T23:30:08.554Z,20.94
2022-08-20T23:32:35.144Z,20.63
2022-08-20T23:35:01.861Z,20.82
2022-08-20T23:37:28.600Z,20.79
2022-08-20T23:39:56.209Z,20.87
2022-08-20T23:42:23.188Z,20.70
2022-08-20T23:44:49.742Z,20.83
2022-08-20T23:47:19.901Z,20.80
2022-08-20T23:49:46.776Z,20.78
2022-08-20T23:52:13.425Z,20.82
2022-08-20T23:54:40.169Z,20.84
2022-08-20T23:57:08.053Z,20.71
2022-08-20T23:59:35.817Z,20.81
